sensor_id;sensor_type;location;lat;lon;timestamp;P1;durP1;ratioP1;P2;durP2;ratioP2
22248;SDS011;67538;52.180;5.646;2023-07-20T00:01:46;9.55;;;6.85;;
22248;SDS011;67538;52.180;5.646;2023-07-20T00:04:13;10.40;;;6.70;;
22248;SDS011;67538;52.180;5.646;2023-07-20T00:06:40;8.50;;;6.35;;
22248;SDS011;67538;52.180;5.646;2023-07-20T00:09:07;9.50;;;6.50;;
22248;SDS011;67538;52.180;5.646;2023-07-20T00:11:35;9.32;;;6.50;;
22248;SDS011;67538;52.180;5.646;2023-07-20T00:14:03;8.40;;;6.47;;
22248;SDS011;67538;52.180;5.646;2023-07-20T00:16:32;9.63;;;6.00;;
22248;SDS011;67538;52.180;5.646;2023-07-20T00:18:59;9.02;;;6.22;;
22248;SDS011;67538;52.180;5.646;2023-07-20T00:21:26;6.85;;;5.70;;
22248;SDS011;67538;52.180;5.646;2023-07-20T00:23:53;7.40;;;5.40;;
22248;SDS011;67538;52.180;5.646;2023-07-20T00:26:20;6.38;;;5.18;;
22248;SDS011;67538;52.180;5.646;2023-07-20T00:28:49;9.90;;;5.47;;
22248;SDS011;67538;52.180;5.646;2023-07-20T00:31:17;6.80;;;5.17;;
22248;SDS011;67538;52.180;5.646;2023-07-20T00:33:45;6.27;;;4.70;;
22248;SDS011;67538;52.180;5.646;2023-07-20T00:36:12;6.47;;;4.55;;
22248;SDS011;67538;52.180;5.646;2023-07-20T00:38:39;7.03;;;4.97;;
22248;SDS011;67538;52.180;5.646;2023-07-20T00:41:06;6.53;;;4.88;;
22248;SDS011;67538;52.180;5.646;2023-07-20T00:43:33;6.28;;;5.03;;
22248;SDS011;67538;52.180;5.646;2023-07-20T00:46:01;7.07;;;4.40;;
22248;SDS011;67538;52.180;5.646;2023-07-20T00:48:28;7.77;;;4.80;;
22248;SDS011;67538;52.180;5.646;2023-07-20T00:50:57;6.88;;;4.32;;
22248;SDS011;67538;52.180;5.646;2023-07-20T00:53:25;6.53;;;4.53;;
22248;SDS011;67538;52.180;5.646;2023-07-20T00:55:53;5.30;;;4.20;;
22248;SDS011;67538;52.180;5.646;2023-07-20T00:58:20;4.60;;;3.60;;
22248;SDS011;67538;52.180;5.646;2023-07-20T01:00:47;4.95;;;4.40;;
22248;SDS011;67538;52.180;5.646;2023-07-20T01:03:14;6.70;;;4.20;;
22248;SDS011;67538;52.180;5.646;2023-07-20T01:05:42;5.13;;;3.78;;
22248;SDS011;67538;52.180;5.646;2023-07-20T01:08:17;4.47;;;4.07;;
22248;SDS011;67538;52.180;5.646;2023-07-20T01:10:51;5.40;;;3.83;;
22248;SDS011;67538;52.180;5.646;2023-07-20T01:13:22;6.57;;;3.80;;
22248;SDS011;67538;52.180;5.646;2023-07-20T01:15:53;4.65;;;3.97;;
22248;SDS011;67538;52.180;5.646;2023-07-20T01:18:23;4.70;;;3.83;;
22248;SDS011;67538;52.180;5.646;2023-07-20T01:20:50;5.30;;;4.00;;
22248;SDS011;67538;52.180;5.646;2023-07-20T01:23:27;7.85;;;3.90;;
22248;SDS011;67538;52.180;5.646;2023-07-20T01:26:12;5.57;;;4.00;;
22248;SDS011;67538;52.180;5.646;2023-07-20T01:29:16;4.47;;;3.90;;
22248;SDS011;67538;52.180;5.646;2023-07-20T01:31:51;4.00;;;3.50;;
22248;SDS011;67538;52.180;5.646;2023-07-20T01:34:19;6.28;;;3.45;;
22248;SDS011;67538;52.180;5.646;2023-07-20T01:36:48;4.70;;;3.47;;
22248;SDS011;67538;52.180;5.646;2023-07-20T01:39:19;3.92;;;3.40;;
22248;SDS011;67538;52.180;5.646;2023-07-20T01:41:47;6.20;;;3.70;;
22248;SDS011;67538;52.180;5.646;2023-07-20T01:44:14;4.22;;;3.60;;
22248;SDS011;67538;52.180;5.646;2023-07-20T01:46:41;3.78;;;3.38;;
22248;SDS011;67538;52.180;5.646;2023-07-20T01:49:10;4.38;;;3.40;;
22248;SDS011;67538;52.180;5.646;2023-07-20T01:51:37;4.40;;;4.00;;
22248;SDS011;67538;52.180;5.646;2023-07-20T01:54:04;4.90;;;3.65;;
22248;SDS011;67538;52.180;5.646;2023-07-20T01:56:31;4.07;;;3.30;;
22248;SDS011;67538;52.180;5.646;2023-07-20T01:58:58;4.80;;;3.90;;
22248;SDS011;67538;52.180;5.646;2023-07-20T02:01:25;4.97;;;3.95;;
22248;SDS011;67538;52.180;5.646;2023-07-20T02:03:53;4.60;;;4.20;;
22248;SDS011;67538;52.180;5.646;2023-07-20T02:06:22;4.40;;;4.00;;
22248;SDS011;67538;52.180;5.646;2023-07-20T02:08:49;5.35;;;4.50;;
22248;SDS011;67538;52.180;5.646;2023-07-20T02:11:16;4.93;;;4.43;;
22248;SDS011;67538;52.180;5.646;2023-07-20T02:13:43;4.40;;;4.00;;
22248;SDS011;67538;52.180;5.646;2023-07-20T02:16:10;5.60;;;4.20;;
22248;SDS011;67538;52.180;5.646;2023-07-20T02:18:37;4.47;;;4.07;;
22248;SDS011;67538;52.180;5.646;2023-07-20T02:21:04;5.07;;;4.32;;
22248;SDS011;67538;52.180;5.646;2023-07-20T02:23:32;4.50;;;3.92;;
22248;SDS011;67538;52.180;5.646;2023-07-20T02:25:59;4.50;;;4.10;;
22248;SDS011;67538;52.180;5.646;2023-07-20T02:28:26;6.65;;;4.63;;
22248;SDS011;67538;52.180;5.646;2023-07-20T02:30:54;5.40;;;4.25;;
22248;SDS011;67538;52.180;5.646;2023-07-20T02:33:21;6.60;;;4.55;;
22248;SDS011;67538;52.180;5.646;2023-07-20T02:35:48;5.60;;;4.30;;
22248;SDS011;67538;52.180;5.646;2023-07-20T02:38:15;5.47;;;4.28;;
22248;SDS011;67538;52.180;5.646;2023-07-20T02:40:43;4.45;;;3.88;;
22248;SDS011;67538;52.180;5.646;2023-07-20T02:43:10;4.63;;;4.10;;
22248;SDS011;67538;52.180;5.646;2023-07-20T02:45:39;5.68;;;4.30;;
22248;SDS011;67538;52.180;5.646;2023-07-20T02:48:08;4.88;;;4.40;;
22248;SDS011;67538;52.180;5.646;2023-07-20T02:50:35;5.13;;;4.30;;
22248;SDS011;67538;52.180;5.646;2023-07-20T02:53:02;5.63;;;4.20;;
22248;SDS011;67538;52.180;5.646;2023-07-20T02:55:29;4.43;;;4.03;;
22248;SDS011;67538;52.180;5.646;2023-07-20T02:57:57;4.50;;;4.10;;
22248;SDS011;67538;52.180;5.646;2023-07-20T03:00:24;4.60;;;4.15;;
22248;SDS011;67538;52.180;5.646;2023-07-20T03:02:52;6.45;;;4.65;;
22248;SDS011;67538;52.180;5.646;2023-07-20T03:05:20;5.22;;;4.72;;
22248;SDS011;67538;52.180;5.646;2023-07-20T03:07:50;5.35;;;4.70;;
22248;SDS011;67538;52.180;5.646;2023-07-20T03:10:17;5.20;;;4.70;;
22248;SDS011;67538;52.180;5.646;2023-07-20T03:12:44;5.45;;;4.78;;
22248;SDS011;67538;52.180;5.646;2023-07-20T03:15:13;5.07;;;4.60;;
22248;SDS011;67538;52.180;5.646;2023-07-20T03:17:40;6.32;;;4.80;;
22248;SDS011;67538;52.180;5.646;2023-07-20T03:20:07;5.03;;;4.50;;
22248;SDS011;67538;52.180;5.646;2023-07-20T03:22:35;5.38;;;4.88;;
22248;SDS011;67538;52.180;5.646;2023-07-20T03:25:02;5.68;;;5.00;;
22248;SDS011;67538;52.180;5.646;2023-07-20T03:27:30;5.22;;;4.72;;
22248;SDS011;67538;52.180;5.646;2023-07-20T03:29:57;5.50;;;4.88;;
22248;SDS011;67538;52.180;5.646;2023-07-20T03:32:26;5.88;;;5.32;;
22248;SDS011;67538;52.180;5.646;2023-07-20T03:34:53;5.60;;;5.00;;
22248;SDS011;67538;52.180;5.646;2023-07-20T03:37:20;5.43;;;4.70;;
22248;SDS011;67538;52.180;5.646;2023-07-20T03:39:47;5.18;;;4.68;;
22248;SDS011;67538;52.180;5.646;2023-07-20T03:42:14;6.43;;;4.90;;
22248;SDS011;67538;52.180;5.646;2023-07-20T03:44:41;5.32;;;4.82;;
22248;SDS011;67538;52.180;5.646;2023-07-20T03:47:09;6.03;;;4.97;;
22248;SDS011;67538;52.180;5.646;2023-07-20T03:49:37;5.97;;;5.10;;
22248;SDS011;67538;52.180;5.646;2023-07-20T03:52:04;7.70;;;5.20;;
22248;SDS011;67538;52.180;5.646;2023-07-20T03:54:31;6.30;;;5.18;;
22248;SDS011;67538;52.180;5.646;2023-07-20T03:56:59;6.00;;;5.40;;
22248;SDS011;67538;52.180;5.646;2023-07-20T03:59:26;6.72;;;5.35;;
22248;SDS011;67538;52.180;5.646;2023-07-20T04:01:53;7.25;;;5.75;;
22248;SDS011;67538;52.180;5.646;2023-07-20T04:04:20;5.68;;;5.10;;
22248;SDS011;67538;52.180;5.646;2023-07-20T04:06:48;6.23;;;4.90;;
22248;SDS011;67538;52.180;5.646;2023-07-20T04:09:15;6.63;;;5.22;;
22248;SDS011;67538;52.180;5.646;2023-07-20T04:11:43;6.68;;;4.60;;
22248;SDS011;67538;52.180;5.646;2023-07-20T04:14:09;5.22;;;4.40;;
22248;SDS011;67538;52.180;5.646;2023-07-20T04:16:36;5.07;;;4.07;;
22248;SDS011;67538;52.180;5.646;2023-07-20T04:19:04;4.60;;;4.20;;
22248;SDS011;67538;52.180;5.646;2023-07-20T04:21:31;6.28;;;4.68;;
22248;SDS011;67538;52.180;5.646;2023-07-20T04:23:59;6.78;;;4.60;;
22248;SDS011;67538;52.180;5.646;2023-07-20T04:26:26;5.17;;;4.67;;
22248;SDS011;67538;52.180;5.646;2023-07-20T04:28:53;5.63;;;4.60;;
22248;SDS011;67538;52.180;5.646;2023-07-20T04:31:20;5.63;;;4.72;;
22248;SDS011;67538;52.180;5.646;2023-07-20T04:33:47;5.60;;;5.00;;
22248;SDS011;67538;52.180;5.646;2023-07-20T04:36:14;7.30;;;5.13;;
22248;SDS011;67538;52.180;5.646;2023-07-20T04:38:44;5.22;;;4.72;;
22248;SDS011;67538;52.180;5.646;2023-07-20T04:41:11;5.00;;;4.60;;
22248;SDS011;67538;52.180;5.646;2023-07-20T04:43:40;5.82;;;5.00;;
22248;SDS011;67538;52.180;5.646;2023-07-20T04:46:08;6.90;;;5.15;;
22248;SDS011;67538;52.180;5.646;2023-07-20T04:48:36;6.30;;;5.45;;
22248;SDS011;67538;52.180;5.646;2023-07-20T04:51:03;7.07;;;5.13;;
22248;SDS011;67538;52.180;5.646;2023-07-20T04:53:30;7.50;;;6.47;;
22248;SDS011;67538;52.180;5.646;2023-07-20T04:55:57;8.65;;;6.75;;
22248;SDS011;67538;52.180;5.646;2023-07-20T04:58:26;10.43;;;7.43;;
22248;SDS011;67538;52.180;5.646;2023-07-20T05:00:53;10.77;;;7.65;;
22248;SDS011;67538;52.180;5.646;2023-07-20T05:03:20;10.43;;;7.93;;
22248;SDS011;67538;52.180;5.646;2023-07-20T05:05:47;11.20;;;8.38;;
22248;SDS011;67538;52.180;5.646;2023-07-20T05:08:14;10.00;;;7.72;;
22248;SDS011;67538;52.180;5.646;2023-07-20T05:10:42;11.43;;;7.95;;
22248;SDS011;67538;52.180;5.646;2023-07-20T05:13:09;9.93;;;7.60;;
22248;SDS011;67538;52.180;5.646;2023-07-20T05:15:37;9.75;;;7.78;;
22248;SDS011;67538;52.180;5.646;2023-07-20T05:18:04;10.95;;;7.40;;
22248;SDS011;67538;52.180;5.646;2023-07-20T05:20:31;8.57;;;7.10;;
22248;SDS011;67538;52.180;5.646;2023-07-20T05:22:59;8.02;;;7.20;;
22248;SDS011;67538;52.180;5.646;2023-07-20T05:25:27;8.95;;;6.88;;
22248;SDS011;67538;52.180;5.646;2023-07-20T05:27:54;7.95;;;6.55;;
22248;SDS011;67538;52.180;5.646;2023-07-20T05:30:21;8.77;;;6.70;;
22248;SDS011;67538;52.180;5.646;2023-07-20T05:32:49;10.03;;;6.10;;
22248;SDS011;67538;52.180;5.646;2023-07-20T05:35:19;10.30;;;6.20;;
22248;SDS011;67538;52.180;5.646;2023-07-20T05:37:47;8.02;;;4.53;;
22248;SDS011;67538;52.180;5.646;2023-07-20T05:40:14;8.88;;;4.35;;
22248;SDS011;67538;52.180;5.646;2023-07-20T05:42:44;7.15;;;4.80;;
22248;SDS011;67538;52.180;5.646;2023-07-20T05:45:13;5.18;;;3.67;;
22248;SDS011;67538;52.180;5.646;2023-07-20T05:47:41;5.68;;;3.95;;
22248;SDS011;67538;52.180;5.646;2023-07-20T05:50:10;4.60;;;2.85;;
22248;SDS011;67538;52.180;5.646;2023-07-20T05:52:37;4.00;;;2.60;;
22248;SDS011;67538;52.180;5.646;2023-07-20T05:55:04;5.90;;;3.10;;
22248;SDS011;67538;52.180;5.646;2023-07-20T05:57:32;6.28;;;2.97;;
22248;SDS011;67538;52.180;5.646;2023-07-20T05:59:59;5.40;;;3.10;;
22248;SDS011;67538;52.180;5.646;2023-07-20T06:02:28;3.53;;;2.15;;
22248;SDS011;67538;52.180;5.646;2023-07-20T06:04:55;3.85;;;1.77;;
22248;SDS011;67538;52.180;5.646;2023-07-20T06:07:23;4.38;;;1.80;;
22248;SDS011;67538;52.180;5.646;2023-07-20T06:09:50;2.35;;;1.73;;
22248;SDS011;67538;52.180;5.646;2023-07-20T06:12:17;2.22;;;1.60;;
22248;SDS011;67538;52.180;5.646;2023-07-20T06:14:44;3.15;;;1.50;;
22248;SDS011;67538;52.180;5.646;2023-07-20T06:17:11;6.23;;;1.50;;
22248;SDS011;67538;52.180;5.646;2023-07-20T06:19:38;1.93;;;1.40;;
22248;SDS011;67538;52.180;5.646;2023-07-20T06:22:05;2.57;;;1.30;;
22248;SDS011;67538;52.180;5.646;2023-07-20T06:24:34;2.45;;;1.30;;
22248;SDS011;67538;52.180;5.646;2023-07-20T06:27:01;2.97;;;1.27;;
22248;SDS011;67538;52.180;5.646;2023-07-20T06:29:28;3.58;;;1.30;;
22248;SDS011;67538;52.180;5.646;2023-07-20T06:31:55;2.20;;;1.10;;
22248;SDS011;67538;52.180;5.646;2023-07-20T06:34:22;3.50;;;1.25;;
22248;SDS011;67538;52.180;5.646;2023-07-20T06:36:49;3.53;;;1.20;;
22248;SDS011;67538;52.180;5.646;2023-07-20T06:39:16;2.28;;;1.30;;
22248;SDS011;67538;52.180;5.646;2023-07-20T06:41:44;3.13;;;1.10;;
22248;SDS011;67538;52.180;5.646;2023-07-20T06:44:11;4.30;;;1.40;;
22248;SDS011;67538;52.180;5.646;2023-07-20T06:46:38;3.75;;;1.30;;
22248;SDS011;67538;52.180;5.646;2023-07-20T06:49:05;2.30;;;1.30;;
22248;SDS011;67538;52.180;5.646;2023-07-20T06:51:33;3.25;;;1.27;;
22248;SDS011;67538;52.180;5.646;2023-07-20T06:54:01;1.45;;;1.00;;
22248;SDS011;67538;52.180;5.646;2023-07-20T06:56:29;3.17;;;1.40;;
22248;SDS011;67538;52.180;5.646;2023-07-20T06:58:58;4.25;;;1.20;;
22248;SDS011;67538;52.180;5.646;2023-07-20T07:01:25;3.60;;;1.30;;
22248;SDS011;67538;52.180;5.646;2023-07-20T07:03:52;1.85;;;0.90;;
22248;SDS011;67538;52.180;5.646;2023-07-20T07:06:19;2.30;;;1.10;;
22248;SDS011;67538;52.180;5.646;2023-07-20T07:08:47;2.30;;;1.13;;
22248;SDS011;67538;52.180;5.646;2023-07-20T07:11:14;2.17;;;1.10;;
22248;SDS011;67538;52.180;5.646;2023-07-20T07:13:41;1.88;;;1.08;;
22248;SDS011;67538;52.180;5.646;2023-07-20T07:16:10;2.00;;;0.90;;
22248;SDS011;67538;52.180;5.646;2023-07-20T07:18:37;1.80;;;1.13;;
22248;SDS011;67538;52.180;5.646;2023-07-20T07:21:05;3.40;;;1.20;;
22248;SDS011;67538;52.180;5.646;2023-07-20T07:23:32;2.90;;;1.20;;
22248;SDS011;67538;52.180;5.646;2023-07-20T07:25:59;1.27;;;1.00;;
22248;SDS011;67538;52.180;5.646;2023-07-20T07:28:26;2.72;;;1.08;;
22248;SDS011;67538;52.180;5.646;2023-07-20T07:30:54;1.90;;;1.20;;
22248;SDS011;67538;52.180;5.646;2023-07-20T07:33:24;2.17;;;1.02;;
22248;SDS011;67538;52.180;5.646;2023-07-20T07:35:51;3.67;;;1.27;;
22248;SDS011;67538;52.180;5.646;2023-07-20T07:38:18;3.78;;;1.20;;
22248;SDS011;67538;52.180;5.646;2023-07-20T07:40:46;2.50;;;1.13;;
22248;SDS011;67538;52.180;5.646;2023-07-20T07:43:13;3.33;;;1.30;;
22248;SDS011;67538;52.180;5.646;2023-07-20T07:45:40;2.28;;;1.20;;
22248;SDS011;67538;52.180;5.646;2023-07-20T07:48:07;2.17;;;1.20;;
22248;SDS011;67538;52.180;5.646;2023-07-20T07:50:37;3.22;;;1.40;;
22248;SDS011;67538;52.180;5.646;2023-07-20T07:53:05;2.00;;;1.20;;
22248;SDS011;67538;52.180;5.646;2023-07-20T07:55:33;1.60;;;1.00;;
22248;SDS011;67538;52.180;5.646;2023-07-20T07:58:02;2.80;;;1.00;;
22248;SDS011;67538;52.180;5.646;2023-07-20T08:00:29;2.55;;;1.15;;
22248;SDS011;67538;52.180;5.646;2023-07-20T08:02:56;2.33;;;1.15;;
22248;SDS011;67538;52.180;5.646;2023-07-20T08:05:23;2.42;;;1.10;;
22248;SDS011;67538;52.180;5.646;2023-07-20T08:07:52;3.53;;;1.10;;
22248;SDS011;67538;52.180;5.646;2023-07-20T08:10:19;2.60;;;1.10;;
22248;SDS011;67538;52.180;5.646;2023-07-20T08:12:48;2.55;;;1.27;;
22248;SDS011;67538;52.180;5.646;2023-07-20T08:15:16;2.20;;;1.20;;
22248;SDS011;67538;52.180;5.646;2023-07-20T08:17:43;2.63;;;1.07;;
22248;SDS011;67538;52.180;5.646;2023-07-20T08:20:12;2.33;;;1.10;;
22248;SDS011;67538;52.180;5.646;2023-07-20T08:22:41;2.30;;;0.98;;
22248;SDS011;67538;52.180;5.646;2023-07-20T08:25:10;4.03;;;1.03;;
22248;SDS011;67538;52.180;5.646;2023-07-20T08:27:37;4.32;;;1.17;;
22248;SDS011;67538;52.180;5.646;2023-07-20T08:30:04;2.28;;;0.80;;
22248;SDS011;67538;52.180;5.646;2023-07-20T08:32:33;1.98;;;1.00;;
22248;SDS011;67538;52.180;5.646;2023-07-20T08:35:00;3.35;;;0.88;;
22248;SDS011;67538;52.180;5.646;2023-07-20T08:37:27;3.67;;;0.93;;
22248;SDS011;67538;52.180;5.646;2023-07-20T08:39:54;1.80;;;1.00;;
22248;SDS011;67538;52.180;5.646;2023-07-20T08:42:22;3.13;;;1.25;;
22248;SDS011;67538;52.180;5.646;2023-07-20T08:44:50;2.30;;;1.17;;
22248;SDS011;67538;52.180;5.646;2023-07-20T08:47:19;3.10;;;1.05;;
22248;SDS011;67538;52.180;5.646;2023-07-20T08:49:48;2.78;;;1.00;;
22248;SDS011;67538;52.180;5.646;2023-07-20T08:52:15;3.05;;;1.20;;
22248;SDS011;67538;52.180;5.646;2023-07-20T08:54:43;1.88;;;0.90;;
22248;SDS011;67538;52.180;5.646;2023-07-20T08:57:10;2.90;;;1.05;;
22248;SDS011;67538;52.180;5.646;2023-07-20T08:59:41;2.97;;;0.98;;
22248;SDS011;67538;52.180;5.646;2023-07-20T09:02:09;1.92;;;1.00;;
22248;SDS011;67538;52.180;5.646;2023-07-20T09:04:44;1.90;;;1.00;;
22248;SDS011;67538;52.180;5.646;2023-07-20T09:07:12;2.57;;;0.90;;
22248;SDS011;67538;52.180;5.646;2023-07-20T09:09:40;1.38;;;0.73;;
22248;SDS011;67538;52.180;5.646;2023-07-20T09:12:12;1.48;;;0.63;;
22248;SDS011;67538;52.180;5.646;2023-07-20T09:14:43;1.95;;;0.73;;
22248;SDS011;67538;52.180;5.646;2023-07-20T09:17:12;2.83;;;0.80;;
22248;SDS011;67538;52.180;5.646;2023-07-20T09:19:45;2.78;;;0.70;;
22248;SDS011;67538;52.180;5.646;2023-07-20T09:22:12;2.55;;;0.95;;
22248;SDS011;67538;52.180;5.646;2023-07-20T09:24:39;2.50;;;1.00;;
22248;SDS011;67538;52.180;5.646;2023-07-20T09:27:07;2.92;;;1.00;;
22248;SDS011;67538;52.180;5.646;2023-07-20T09:29:39;2.67;;;0.90;;
22248;SDS011;67538;52.180;5.646;2023-07-20T09:32:17;2.30;;;0.95;;
22248;SDS011;67538;52.180;5.646;2023-07-20T09:34:45;2.47;;;0.80;;
22248;SDS011;67538;52.180;5.646;2023-07-20T09:37:13;6.75;;;1.40;;
22248;SDS011;67538;52.180;5.646;2023-07-20T09:39:43;3.35;;;1.20;;
22248;SDS011;67538;52.180;5.646;2023-07-20T09:42:11;3.78;;;1.20;;
22248;SDS011;67538;52.180;5.646;2023-07-20T09:44:38;6.93;;;1.30;;
22248;SDS011;67538;52.180;5.646;2023-07-20T09:47:07;4.38;;;1.35;;
22248;SDS011;67538;52.180;5.646;2023-07-20T09:49:38;4.43;;;1.25;;
22248;SDS011;67538;52.180;5.646;2023-07-20T09:52:06;2.75;;;1.00;;
22248;SDS011;67538;52.180;5.646;2023-07-20T09:54:34;2.75;;;1.00;;
22248;SDS011;67538;52.180;5.646;2023-07-20T09:57:03;5.30;;;1.00;;
22248;SDS011;67538;52.180;5.646;2023-07-20T09:59:33;1.38;;;0.80;;
22248;SDS011;67538;52.180;5.646;2023-07-20T10:02:00;2.45;;;0.90;;
22248;SDS011;67538;52.180;5.646;2023-07-20T10:04:32;3.00;;;1.20;;
22248;SDS011;67538;52.180;5.646;2023-07-20T10:07:03;3.28;;;1.08;;
22248;SDS011;67538;52.180;5.646;2023-07-20T10:09:36;1.98;;;0.90;;
22248;SDS011;67538;52.180;5.646;2023-07-20T10:12:06;2.40;;;0.90;;
22248;SDS011;67538;52.180;5.646;2023-07-20T10:14:36;2.05;;;0.90;;
22248;SDS011;67538;52.180;5.646;2023-07-20T10:17:09;2.87;;;0.87;;
22248;SDS011;67538;52.180;5.646;2023-07-20T10:19:42;1.40;;;0.60;;
22248;SDS011;67538;52.180;5.646;2023-07-20T10:22:11;1.55;;;0.80;;
22248;SDS011;67538;52.180;5.646;2023-07-20T10:24:44;27.85;;;1.88;;
22248;SDS011;67538;52.180;5.646;2023-07-20T10:27:12;26.35;;;1.95;;
22248;SDS011;67538;52.180;5.646;2023-07-20T10:29:40;105.22;;;6.47;;
22248;SDS011;67538;52.180;5.646;2023-07-20T10:32:08;2.10;;;0.70;;
22248;SDS011;67538;52.180;5.646;2023-07-20T10:34:36;14.52;;;1.65;;
22248;SDS011;67538;52.180;5.646;2023-07-20T10:37:04;12.60;;;1.30;;
22248;SDS011;67538;52.180;5.646;2023-07-20T10:39:32;1.60;;;0.63;;
22248;SDS011;67538;52.180;5.646;2023-07-20T10:42:00;3.58;;;0.90;;
22248;SDS011;67538;52.180;5.646;2023-07-20T10:44:28;1.90;;;0.70;;
22248;SDS011;67538;52.180;5.646;2023-07-20T10:46:58;1.90;;;0.70;;
22248;SDS011;67538;52.180;5.646;2023-07-20T10:49:26;1.90;;;0.80;;
22248;SDS011;67538;52.180;5.646;2023-07-20T10:51:57;3.65;;;0.85;;
22248;SDS011;67538;52.180;5.646;2023-07-20T10:54:35;2.08;;;0.88;;
22248;SDS011;67538;52.180;5.646;2023-07-20T10:57:30;5.07;;;0.90;;
22248;SDS011;67538;52.180;5.646;2023-07-20T11:00:07;2.45;;;0.80;;
22248;SDS011;67538;52.180;5.646;2023-07-20T11:02:43;2.42;;;0.73;;
22248;SDS011;67538;52.180;5.646;2023-07-20T11:08:04;1.60;;;0.70;;
22248;SDS011;67538;52.180;5.646;2023-07-20T11:10:33;2.33;;;0.80;;
22248;SDS011;67538;52.180;5.646;2023-07-20T11:13:15;1.88;;;0.80;;
22248;SDS011;67538;52.180;5.646;2023-07-20T11:15:48;2.65;;;0.70;;
22248;SDS011;67538;52.180;5.646;2023-07-20T11:18:29;1.35;;;0.70;;
22248;SDS011;67538;52.180;5.646;2023-07-20T11:20:57;2.97;;;0.80;;
22248;SDS011;67538;52.180;5.646;2023-07-20T11:23:24;2.38;;;0.80;;
22248;SDS011;67538;52.180;5.646;2023-07-20T11:25:53;3.65;;;0.93;;
22248;SDS011;67538;52.180;5.646;2023-07-20T11:28:21;1.90;;;0.90;;
22248;SDS011;67538;52.180;5.646;2023-07-20T11:30:50;3.63;;;0.95;;
22248;SDS011;67538;52.180;5.646;2023-07-20T11:33:19;2.10;;;1.00;;
22248;SDS011;67538;52.180;5.646;2023-07-20T11:35:48;1.23;;;0.70;;
22248;SDS011;67538;52.180;5.646;2023-07-20T11:38:16;2.93;;;0.87;;
22248;SDS011;67538;52.180;5.646;2023-07-20T11:40:43;2.17;;;0.70;;
22248;SDS011;67538;52.180;5.646;2023-07-20T11:43:12;1.70;;;0.70;;
22248;SDS011;67538;52.180;5.646;2023-07-20T11:45:40;1.83;;;0.70;;
22248;SDS011;67538;52.180;5.646;2023-07-20T11:48:07;1.52;;;0.70;;
22248;SDS011;67538;52.180;5.646;2023-07-20T11:50:40;1.20;;;0.80;;
22248;SDS011;67538;52.180;5.646;2023-07-20T11:53:07;1.40;;;0.60;;
22248;SDS011;67538;52.180;5.646;2023-07-20T11:55:34;1.30;;;0.70;;
22248;SDS011;67538;52.180;5.646;2023-07-20T11:58:02;2.45;;;0.80;;
22248;SDS011;67538;52.180;5.646;2023-07-20T12:00:31;2.30;;;0.82;;
22248;SDS011;67538;52.180;5.646;2023-07-20T12:03:00;2.50;;;0.82;;
22248;SDS011;67538;52.180;5.646;2023-07-20T12:05:29;1.45;;;0.90;;
22248;SDS011;67538;52.180;5.646;2023-07-20T12:07:56;2.70;;;1.00;;
22248;SDS011;67538;52.180;5.646;2023-07-20T12:10:23;3.17;;;0.80;;
22248;SDS011;67538;52.180;5.646;2023-07-20T12:12:51;2.22;;;0.70;;
22248;SDS011;67538;52.180;5.646;2023-07-20T12:15:20;2.80;;;0.63;;
22248;SDS011;67538;52.180;5.646;2023-07-20T12:17:50;1.55;;;0.75;;
22248;SDS011;67538;52.180;5.646;2023-07-20T12:20:26;1.38;;;0.70;;
22248;SDS011;67538;52.180;5.646;2023-07-20T12:22:56;2.22;;;1.00;;
22248;SDS011;67538;52.180;5.646;2023-07-20T12:25:36;3.22;;;0.90;;
22248;SDS011;67538;52.180;5.646;2023-07-20T12:28:07;3.38;;;0.80;;
22248;SDS011;67538;52.180;5.646;2023-07-20T12:30:36;1.10;;;0.68;;
22248;SDS011;67538;52.180;5.646;2023-07-20T12:33:04;5.00;;;0.80;;
22248;SDS011;67538;52.180;5.646;2023-07-20T12:35:32;1.58;;;0.70;;
22248;SDS011;67538;52.180;5.646;2023-07-20T12:37:59;2.80;;;0.80;;
22248;SDS011;67538;52.180;5.646;2023-07-20T12:40:27;2.42;;;0.80;;
22248;SDS011;67538;52.180;5.646;2023-07-20T12:42:54;1.67;;;0.70;;
22248;SDS011;67538;52.180;5.646;2023-07-20T12:45:21;1.00;;;0.70;;
22248;SDS011;67538;52.180;5.646;2023-07-20T12:47:48;4.40;;;0.90;;
22248;SDS011;67538;52.180;5.646;2023-07-20T12:50:17;4.07;;;0.80;;
22248;SDS011;67538;52.180;5.646;2023-07-20T12:52:44;1.45;;;0.70;;
22248;SDS011;67538;52.180;5.646;2023-07-20T12:55:11;2.05;;;0.70;;
22248;SDS011;67538;52.180;5.646;2023-07-20T12:57:38;1.55;;;0.80;;
22248;SDS011;67538;52.180;5.646;2023-07-20T13:00:08;1.10;;;0.70;;
22248;SDS011;67538;52.180;5.646;2023-07-20T13:02:37;2.25;;;0.93;;
22248;SDS011;67538;52.180;5.646;2023-07-20T13:05:05;4.25;;;0.73;;
22248;SDS011;67538;52.180;5.646;2023-07-20T13:07:34;1.17;;;0.60;;
22248;SDS011;67538;52.180;5.646;2023-07-20T13:10:03;3.30;;;0.70;;
22248;SDS011;67538;52.180;5.646;2023-07-20T13:12:32;2.80;;;0.67;;
22248;SDS011;67538;52.180;5.646;2023-07-20T13:15:01;1.88;;;0.70;;
22248;SDS011;67538;52.180;5.646;2023-07-20T13:17:30;1.50;;;0.70;;
22248;SDS011;67538;52.180;5.646;2023-07-20T13:19:58;0.98;;;0.68;;
22248;SDS011;67538;52.180;5.646;2023-07-20T13:22:25;1.50;;;0.63;;
22248;SDS011;67538;52.180;5.646;2023-07-20T13:24:53;1.08;;;0.70;;
22248;SDS011;67538;52.180;5.646;2023-07-20T13:27:21;0.95;;;0.70;;
22248;SDS011;67538;52.180;5.646;2023-07-20T13:29:48;1.90;;;0.73;;
22248;SDS011;67538;52.180;5.646;2023-07-20T13:32:15;2.10;;;0.80;;
22248;SDS011;67538;52.180;5.646;2023-07-20T13:34:43;1.50;;;0.70;;
22248;SDS011;67538;52.180;5.646;2023-07-20T13:37:10;1.10;;;0.70;;
22248;SDS011;67538;52.180;5.646;2023-07-20T13:39:37;3.90;;;1.00;;
22248;SDS011;67538;52.180;5.646;2023-07-20T13:42:06;3.83;;;0.90;;
22248;SDS011;67538;52.180;5.646;2023-07-20T13:44:35;1.20;;;0.80;;
22248;SDS011;67538;52.180;5.646;2023-07-20T13:47:02;2.40;;;0.70;;
22248;SDS011;67538;52.180;5.646;2023-07-20T13:49:31;1.33;;;0.80;;
22248;SDS011;67538;52.180;5.646;2023-07-20T13:51:58;4.50;;;0.85;;
22248;SDS011;67538;52.180;5.646;2023-07-20T13:54:25;1.17;;;0.80;;
22248;SDS011;67538;52.180;5.646;2023-07-20T13:56:52;1.50;;;0.80;;
22248;SDS011;67538;52.180;5.646;2023-07-20T13:59:20;1.30;;;0.70;;
22248;SDS011;67538;52.180;5.646;2023-07-20T14:01:47;3.85;;;0.90;;
22248;SDS011;67538;52.180;5.646;2023-07-20T14:04:14;3.13;;;0.73;;
22248;SDS011;67538;52.180;5.646;2023-07-20T14:06:42;1.47;;;0.70;;
22248;SDS011;67538;52.180;5.646;2023-07-20T14:09:09;2.10;;;0.80;;
22248;SDS011;67538;52.180;5.646;2023-07-20T14:11:35;1.10;;;0.70;;
22248;SDS011;67538;52.180;5.646;2023-07-20T14:14:03;2.40;;;0.70;;
22248;SDS011;67538;52.180;5.646;2023-07-20T14:16:31;3.10;;;0.77;;
22248;SDS011;67538;52.180;5.646;2023-07-20T14:18:58;2.20;;;0.90;;
22248;SDS011;67538;52.180;5.646;2023-07-20T14:21:25;1.75;;;0.93;;
22248;SDS011;67538;52.180;5.646;2023-07-20T14:23:53;2.47;;;0.90;;
22248;SDS011;67538;52.180;5.646;2023-07-20T14:26:20;2.08;;;0.85;;
22248;SDS011;67538;52.180;5.646;2023-07-20T14:28:47;2.17;;;0.82;;
22248;SDS011;67538;52.180;5.646;2023-07-20T14:31:14;4.07;;;0.93;;
22248;SDS011;67538;52.180;5.646;2023-07-20T14:33:43;1.88;;;0.80;;
22248;SDS011;67538;52.180;5.646;2023-07-20T14:36:10;2.20;;;0.80;;
22248;SDS011;67538;52.180;5.646;2023-07-20T14:38:37;2.20;;;0.70;;
22248;SDS011;67538;52.180;5.646;2023-07-20T14:41:05;2.13;;;0.90;;
22248;SDS011;67538;52.180;5.646;2023-07-20T14:43:32;3.67;;;0.90;;
22248;SDS011;67538;52.180;5.646;2023-07-20T14:45:59;1.87;;;0.80;;
22248;SDS011;67538;52.180;5.646;2023-07-20T14:48:26;1.17;;;0.70;;
22248;SDS011;67538;52.180;5.646;2023-07-20T14:50:55;2.50;;;0.70;;
22248;SDS011;67538;52.180;5.646;2023-07-20T14:53:22;1.67;;;0.85;;
22248;SDS011;67538;52.180;5.646;2023-07-20T14:55:49;5.05;;;0.90;;
22248;SDS011;67538;52.180;5.646;2023-07-20T14:58:16;1.67;;;1.00;;